Time;durP1;ratioP1;P1;durP2;ratioP2;P2;SDS_P1;SDS_P2;PMS_P1;PMS_P2;Temp;Humidity;BMP_temperature;BMP_pressure;BME280_temperature;BME280_humidity;BME280_pressure;Samples;Min_cycle;Max_cycle;Signal;HPM_P1;HPM_P2
2023/06/25 00:02:20;;;;;;;;;;;;;;;20.86;59.16;101921.53;4994713;28;20012;-76
2023/06/25 00:04:46;;;;;;;;;;;;;;;20.79;59.69;101919.13;5012309;28;19921;-76
2023/06/25 00:07:11;;;;;;;;;;;;;;;20.75;60.82;101920.25;5012460;28;20415;-76
2023/06/25 00:09:36;;;;;;;;;;;;;;;20.69;60.59;101915.13;5012323;28;19921;-76
2023/06/25 00:12:03;;;;;;;;;;;;;;;20.63;60.83;101910.06;4994426;28;19979;-76
2023/06/25 00:14:28;;;;;;;;;;;;;;;20.60;60.88;101907.50;4994373;28;19925;-76
2023/06/25 00:16:57;;;;;;;;;;;;;;;20.55;60.79;101907.72;4994274;28;19921;-76
2023/06/25 00:19:23;;;;;;;;;;;;;;;20.52;61.71;101912.31;5011966;28;19918;-76
2023/06/25 00:21:48;;;;;;;;;;;;;;;20.46;62.42;101913.50;5012080;28;20008;-76
2023/06/25 00:24:14;;;;;;;;;;;;;;;20.43;61.99;101910.09;4994018;28;19975;-76
2023/06/25 00:26:45;;;;;;;;;;;;;;;20.40;62.25;101905.72;5010594;28;19933;-76
2023/06/25 00:29:10;;;;;;;;;;;;;;;20.39;62.24;101901.25;5011741;28;19952;-76
2023/06/25 00:31:37;;;;;;;;;;;;;;;20.35;62.02;101902.34;5012025;28;20328;-76
2023/06/25 00:34:02;;;;;;;;;;;;;;;20.30;62.42;101899.88;5010147;28;20272;-76
2023/06/25 00:36:36;;;;;;;;;;;;;;;20.29;63.08;101900.81;5011952;28;19925;-76
2023/06/25 00:39:02;;;;;;;;;;;;;;;20.28;62.64;101901.75;5004632;28;19921;-76
2023/06/25 00:41:27;;;;;;;;;;;;;;;20.26;63.22;101892.03;4977110;28;20005;-76
2023/06/25 00:43:53;;;;;;;;;;;;;;;20.26;62.98;101894.72;5011467;28;20016;-76
2023/06/25 00:46:18;;;;;;;;;;;;;;;20.26;63.54;101895.56;4994316;28;19955;-76
2023/06/25 00:48:47;;;;;;;;;;;;;;;20.23;62.82;101890.34;4993678;28;19921;-76
2023/06/25 00:51:14;;;;;;;;;;;;;;;20.14;63.65;101891.63;5011785;28;19918;-76
2023/06/25 00:53:43;;;;;;;;;;;;;;;20.08;63.35;101885.63;4993815;28;19929;-76
2023/06/25 00:56:09;;;;;;;;;;;;;;;20.02;63.13;101875.16;5010358;28;19933;-76
2023/06/25 00:58:37;;;;;;;;;;;;;;;19.97;63.77;101878.06;5011553;28;19936;-76
2023/06/25 01:01:05;;;;;;;;;;;;;;;19.93;64.37;101876.44;4993655;28;19926;-76
2023/06/25 01:03:32;;;;;;;;;;;;;;;19.93;64.27;101874.66;4993826;28;19917;-76
2023/06/25 01:06:07;;;;;;;;;;;;;;;19.88;62.82;101875.78;5011629;28;20300;-76
2023/06/25 01:08:35;;;;;;;;;;;;;;;19.79;64.04;101874.38;4998926;28;20508;-76
2023/06/25 01:11:02;;;;;;;;;;;;;;;19.77;65.62;101869.06;4993610;28;20367;-76
2023/06/25 01:13:27;;;;;;;;;;;;;;;19.76;63.04;101867.34;4993471;28;19921;-76
2023/06/25 01:15:53;;;;;;;;;;;;;;;19.75;65.17;101864.69;4977329;28;19925;-76
2023/06/25 01:18:18;;;;;;;;;;;;;;;19.71;64.55;101872.03;4977067;28;19929;-76
2023/06/25 01:20:43;;;;;;;;;;;;;;;19.67;65.30;101864.16;5011319;28;19975;-76
2023/06/25 01:23:10;;;;;;;;;;;;;;;19.63;64.74;101857.16;5010994;28;19929;-76
2023/06/25 01:25:36;;;;;;;;;;;;;;;19.60;65.41;101863.53;4977123;28;20380;-76
2023/06/25 01:28:02;;;;;;;;;;;;;;;19.59;65.98;101856.41;4993206;28;19917;-76
2023/06/25 01:30:31;;;;;;;;;;;;;;;19.58;65.57;101854.66;5011145;28;19932;-76
2023/06/25 01:32:57;;;;;;;;;;;;;;;19.51;65.35;101854.06;5010931;28;20348;-76
2023/06/25 01:35:22;;;;;;;;;;;;;;;19.47;65.74;101856.94;5010952;28;19956;-76
2023/06/25 01:37:48;;;;;;;;;;;;;;;19.43;66.60;101856.19;5010660;28;20430;-76
2023/06/25 01:40:13;;;;;;;;;;;;;;;19.42;67.08;101850.91;4976753;28;19922;-76
2023/06/25 01:42:38;;;;;;;;;;;;;;;19.42;66.52;101851.78;4976848;28;19969;-76
2023/06/25 01:45:04;;;;;;;;;;;;;;;19.40;66.61;101850.09;5010665;28;19990;-76
2023/06/25 01:47:29;;;;;;;;;;;;;;;19.34;66.12;101843.19;4976510;28;19944;-77
2023/06/25 01:49:55;;;;;;;;;;;;;;;19.28;65.79;101838.91;4976730;28;20368;-77
2023/06/25 01:52:20;;;;;;;;;;;;;;;19.24;66.22;101839.13;4992545;28;19918;-76
2023/06/25 01:54:46;;;;;;;;;;;;;;;19.21;66.24;101834.75;4975592;28;20016;-77
2023/06/25 01:57:13;;;;;;;;;;;;;;;19.17;66.40;101835.81;4991148;28;19938;-77
2023/06/25 01:59:38;;;;;;;;;;;;;;;19.13;66.22;101829.69;4990118;28;19918;-77
2023/06/25 02:02:04;;;;;;;;;;;;;;;19.10;67.29;101824.47;4992697;28;19923;-77
2023/06/25 02:04:29;;;;;;;;;;;;;;;19.08;67.28;101822.78;5010226;28;20023;-77
2023/06/25 02:06:55;;;;;;;;;;;;;;;19.06;67.00;101824.66;5010449;28;19917;-77
2023/06/25 02:09:21;;;;;;;;;;;;;;;19.01;66.62;101815.91;4976213;28;19924;-77
2023/06/25 02:11:46;;;;;;;;;;;;;;;18.96;66.81;101812.56;4992338;28;20349;-77
2023/06/25 02:14:12;;;;;;;;;;;;;;;18.90;66.67;101811.00;4992453;28;20013;-77
2023/06/25 02:16:37;;;;;;;;;;;;;;;18.85;67.24;101803.13;4992207;28;19984;-77
2023/06/25 02:19:03;;;;;;;;;;;;;;;18.79;68.01;101802.50;4992437;28;20380;-78
2023/06/25 02:21:28;;;;;;;;;;;;;;;18.77;68.91;101799.91;4992267;28;19972;-78
2023/06/25 02:23:54;;;;;;;;;;;;;;;18.75;68.08;101803.56;4992137;28;19956;-78
2023/06/25 02:26:19;;;;;;;;;;;;;;;18.71;67.83;101797.41;5010255;28;20317;-78
2023/06/25 02:28:44;;;;;;;;;;;;;;;18.66;67.25;101788.69;5010160;28;19921;-78
2023/06/25 02:31:10;;;;;;;;;;;;;;;18.62;67.54;101792.41;4992499;28;19925;-78
2023/06/25 02:33:35;;;;;;;;;;;;;;;18.58;68.41;101786.31;4992141;28;19917;-78
2023/06/25 02:36:01;;;;;;;;;;;;;;;18.54;68.09;101795.41;4992485;28;20389;-78
2023/06/25 02:38:26;;;;;;;;;;;;;;;18.50;67.76;101787.59;4959926;28;19944;-79
2023/06/25 02:40:52;;;;;;;;;;;;;;;18.45;67.49;101788.63;5010284;28;19924;-79
2023/06/25 02:43:17;;;;;;;;;;;;;;;18.40;67.69;101784.38;4992011;28;19931;-79
2023/06/25 02:45:43;;;;;;;;;;;;;;;18.35;68.17;101787.25;5010162;28;20020;-79
2023/06/25 02:48:08;;;;;;;;;;;;;;;18.33;68.41;101785.56;4976153;28;19921;-79
2023/06/25 02:50:34;;;;;;;;;;;;;;;18.31;68.48;101779.38;5009958;28;19965;-79
2023/06/25 02:52:59;;;;;;;;;;;;;;;18.30;68.85;101786.56;4993092;28;20264;-79
2023/06/25 02:55:24;;;;;;;;;;;;;;;18.29;68.96;101787.47;5010516;28;20056;-79
2023/06/25 02:57:50;;;;;;;;;;;;;;;18.29;68.89;101786.59;4990778;28;20000;-80
2023/06/25 03:00:16;;;;;;;;;;;;;;;18.27;68.65;101779.50;4992512;28;19985;-80
2023/06/25 03:02:41;;;;;;;;;;;;;;;18.23;68.14;101785.03;4976138;28;19925;-80
2023/06/25 03:05:07;;;;;;;;;;;;;;;18.17;68.49;101783.44;4977511;28;19948;-80
2023/06/25 03:07:34;;;;;;;;;;;;;;;18.11;68.72;101782.84;4995796;28;19953;-81
2023/06/25 03:09:59;;;;;;;;;;;;;;;18.08;69.39;101783.81;4979712;28;19968;-80
2023/06/25 03:12:25;;;;;;;;;;;;;;;18.08;69.67;101785.63;4995926;28;19917;-80
2023/06/25 03:14:50;;;;;;;;;;;;;;;18.04;69.15;101785.72;5013359;28;19921;-81
2023/06/25 03:17:16;;;;;;;;;;;;;;;17.99;69.57;101787.72;4995752;28;19921;-80
2023/06/25 03:19:41;;;;;;;;;;;;;;;17.96;69.85;101785.16;4995958;28;19933;-80
2023/06/25 03:22:07;;;;;;;;;;;;;;;17.94;70.08;101787.00;4979611;28;20024;-80
2023/06/25 03:24:35;;;;;;;;;;;;;;;17.90;70.32;101782.69;4995313;28;20364;-80
2023/06/25 03:27:02;;;;;;;;;;;;;;;17.88;69.94;101778.31;4979295;28;20060;-80
2023/06/25 03:29:28;;;;;;;;;;;;;;;17.86;70.29;101774.84;4976003;28;19981;-80
2023/06/25 03:31:54;;;;;;;;;;;;;;;17.84;70.27;101774.91;4994883;28;19933;-81
2023/06/25 03:34:23;;;;;;;;;;;;;;;17.82;70.41;101772.25;4964164;28;20254;-81
2023/06/25 03:36:50;;;;;;;;;;;;;;;17.82;70.73;101774.94;4979258;28;19987;-80
2023/06/25 03:39:15;;;;;;;;;;;;;;;17.83;70.53;101773.16;4995490;28;19925;-80
2023/06/25 03:41:41;;;;;;;;;;;;;;;17.83;70.78;101767.81;4995505;28;20281;-80
2023/06/25 03:44:07;;;;;;;;;;;;;;;17.80;70.20;101768.78;4995369;28;20010;-80
2023/06/25 03:46:34;;;;;;;;;;;;;;;17.78;70.95;101765.25;4979458;28;20070;-81
2023/06/25 03:48:59;;;;;;;;;;;;;;;17.77;70.85;101760.81;4995131;28;19921;-80
2023/06/25 03:51:25;;;;;;;;;;;;;;;17.77;71.33;101760.81;4995714;28;19913;-81
2023/06/25 03:53:52;;;;;;;;;;;;;;;17.79;71.91;101760.78;4979304;28;19921;-80
2023/06/25 03:56:17;;;;;;;;;;;;;;;17.79;71.79;101760.78;4980437;28;20335;-80
2023/06/25 03:58:42;;;;;;;;;;;;;;;17.77;70.85;101763.50;4985996;28;19921;-81
2023/06/25 04:01:08;;;;;;;;;;;;;;;17.77;71.56;101762.63;4995115;28;19933;-81
2023/06/25 04:03:34;;;;;;;;;;;;;;;17.78;71.62;101759.91;4979292;28;19975;-81
2023/06/25 04:05:59;;;;;;;;;;;;;;;17.79;71.79;101758.09;4995386;28;19924;-81
2023/06/25 04:08:25;;;;;;;;;;;;;;;17.82;71.40;101764.22;4995534;28;20049;-81
2023/06/25 04:10:51;;;;;;;;;;;;;;;17.81;71.35;101759.81;4979164;28;19918;-81
2023/06/25 04:13:17;;;;;;;;;;;;;;;17.80;71.49;101758.09;4995321;28;19944;-79
2023/06/25 04:15:43;;;;;;;;;;;;;;;17.79;71.66;101763.44;5012784;28;19979;-80
2023/06/25 04:18:08;;;;;;;;;;;;;;;17.78;72.05;101762.59;4978166;28;20008;-79
2023/06/25 04:20:33;;;;;;;;;;;;;;;17.79;71.76;101764.31;4978805;28;19932;-79
2023/06/25 04:23:00;;;;;;;;;;;;;;;17.80;72.34;101767.91;4978506;28;20004;-79
2023/06/25 04:25:25;;;;;;;;;;;;;;;17.81;72.21;101772.34;4978651;28;19940;-80
2023/06/25 04:27:53;;;;;;;;;;;;;;;17.83;72.39;101774.03;4978411;28;19921;-79
2023/06/25 04:30:19;;;;;;;;;;;;;;;17.86;72.92;101764.13;4994741;28;20054;-79
2023/06/25 04:32:44;;;;;;;;;;;;;;;17.91;73.06;101765.69;4978453;28;19917;-80
2023/06/25 04:35:10;;;;;;;;;;;;;;;17.96;72.96;101760.19;5012278;28;19918;-79
2023/06/25 04:37:38;;;;;;;;;;;;;;;17.98;73.04;101764.53;4978597;28;19928;-79
2023/06/25 04:40:05;;;;;;;;;;;;;;;18.03;73.29;101761.69;4994475;28;19929;-79
2023/06/25 04:42:31;;;;;;;;;;;;;;;18.07;73.26;101757.06;4994434;28;19928;-79
2023/06/25 04:44:56;;;;;;;;;;;;;;;18.11;73.04;101764.94;4994058;28;19918;-79
2023/06/25 04:47:21;;;;;;;;;;;;;;;18.16;72.99;101762.09;4978075;28;19940;-79
2023/06/25 04:49:48;;;;;;;;;;;;;;;18.22;73.46;101762.72;4994268;28;19922;-80
2023/06/25 04:52:18;;;;;;;;;;;;;;;18.29;73.53;101762.47;4976029;28;20006;-79
2023/06/25 04:54:44;;;;;;;;;;;;;;;18.34;73.50;101763.16;4993977;28;19936;-80
2023/06/25 04:57:09;;;;;;;;;;;;;;;18.41;73.58;101760.16;4993284;28;19947;-80
2023/06/25 04:59:35;;;;;;;;;;;;;;;18.49;73.82;101757.19;4993731;28;19917;-80
2023/06/25 05:02:00;;;;;;;;;;;;;;;18.59;73.46;101753.19;4993950;28;19943;-80
2023/06/25 05:04:26;;;;;;;;;;;;;;;18.70;73.60;101761.69;4993947;28;20016;-79
2023/06/25 05:06:51;;;;;;;;;;;;;;;18.84;73.61;101754.88;4978106;28;19987;-80
2023/06/25 05:09:16;;;;;;;;;;;;;;;18.97;73.51;101750.75;4977881;28;19967;-80
2023/06/25 05:11:42;;;;;;;;;;;;;;;19.07;73.45;101761.97;4977604;28;19924;-79
2023/06/25 05:14:07;;;;;;;;;;;;;;;19.16;73.67;101760.69;5011518;28;19967;-80
2023/06/25 05:16:32;;;;;;;;;;;;;;;19.25;73.25;101753.13;5011596;28;20292;-80
2023/06/25 05:18:58;;;;;;;;;;;;;;;19.36;73.10;101755.31;5011599;28;20008;-79
2023/06/25 05:21:23;;;;;;;;;;;;;;;19.47;72.53;101752.19;5011535;28;20291;-79
2023/06/25 05:23:58;;;;;;;;;;;;;;;19.57;72.73;101755.34;5011246;28;19925;-80
2023/06/25 05:26:24;;;;;;;;;;;;;;;19.65;72.14;101748.66;4977532;28;20246;-79
2023/06/25 05:28:50;;;;;;;;;;;;;;;19.75;71.92;101751.81;4976531;28;19924;-80
2023/06/25 05:31:15;;;;;;;;;;;;;;;19.82;71.92;101750.59;5003590;28;19972;-79
2023/06/25 05:33:40;;;;;;;;;;;;;;;19.89;71.49;101746.69;4984431;28;20026;-80
2023/06/25 05:36:06;;;;;;;;;;;;;;;19.98;71.06;101748.97;4982915;28;19922;-80
2023/06/25 05:38:31;;;;;;;;;;;;;;;20.09;70.75;101753.81;4974412;28;19979;-80
2023/06/25 05:40:56;;;;;;;;;;;;;;;20.19;70.88;101751.56;4980500;28;19965;-80
2023/06/25 05:43:22;;;;;;;;;;;;;;;20.30;69.38;101753.72;4989214;28;19921;-80
2023/06/25 05:45:47;;;;;;;;;;;;;;;20.39;69.10;101748.78;4963191;28;19988;-80
2023/06/25 05:48:13;;;;;;;;;;;;;;;20.49;69.21;101741.13;4993052;28;20008;-82
2023/06/25 05:50:38;;;;;;;;;;;;;;;20.57;69.36;101744.38;5011150;28;20027;-82
2023/06/25 05:53:04;;;;;;;;;;;;;;;20.69;69.16;101744.69;4993666;28;19997;-83
2023/06/25 05:55:29;;;;;;;;;;;;;;;20.76;67.42;101744.31;5010329;28;19921;-82
2023/06/25 05:57:54;;;;;;;;;;;;;;;20.84;67.52;101735.84;5009477;28;19948;-82
2023/06/25 06:00:21;;;;;;;;;;;;;;;20.91;66.83;101733.72;4993701;28;20240;-81
2023/06/25 06:02:46;;;;;;;;;;;;;;;20.96;66.52;101740.59;4993543;28;19921;-82
2023/06/25 06:05:12;;;;;;;;;;;;;;;21.01;66.51;101735.00;4989417;28;20359;-82
2023/06/25 06:07:37;;;;;;;;;;;;;;;21.07;66.97;101733.78;4980995;28;19928;-83
2023/06/25 06:10:02;;;;;;;;;;;;;;;21.16;66.69;101736.88;4993641;28;20332;-84
2023/06/25 06:12:29;;;;;;;;;;;;;;;21.24;66.69;101731.97;5004606;28;20337;-83
2023/06/25 06:14:55;;;;;;;;;;;;;;;21.32;65.49;101736.97;4993466;28;19928;-82
2023/06/25 06:17:20;;;;;;;;;;;;;;;21.38;65.62;101738.44;4969580;28;20021;-83
2023/06/25 06:19:46;;;;;;;;;;;;;;;21.45;65.14;101745.28;5011225;28;19961;-83
2023/06/25 06:22:13;;;;;;;;;;;;;;;21.53;64.77;101734.97;5007274;28;20393;-83
2023/06/25 06:24:38;;;;;;;;;;;;;;;21.65;63.31;101730.75;4971402;28;19925;-86
2023/06/25 06:27:04;;;;;;;;;;;;;;;21.74;63.49;101741.03;4977580;28;19932;-85
2023/06/25 06:29:29;;;;;;;;;;;;;;;21.83;62.88;101737.81;4993658;28;19929;-86
2023/06/25 06:31:55;;;;;;;;;;;;;;;21.92;62.99;101739.16;5011273;28;20262;-83
2023/06/25 06:34:22;;;;;;;;;;;;;;;22.02;61.80;101742.22;4974326;28;19922;-82
2023/06/25 06:36:48;;;;;;;;;;;;;;;22.11;60.68;101736.31;5008960;28;20341;-83
2023/06/25 06:39:14;;;;;;;;;;;;;;;22.19;60.57;101741.28;4977260;28;19928;-83
2023/06/25 06:41:39;;;;;;;;;;;;;;;22.23;60.04;101727.56;4997243;28;19928;-84
2023/06/25 06:44:18;;;;;;;;;;;;;;;22.32;60.21;101731.53;4996702;28;20353;-83
2023/06/25 06:46:44;;;;;;;;;;;;;;;22.45;60.64;101727.19;5014776;28;19996;-85
2023/06/25 06:49:09;;;;;;;;;;;;;;;22.57;60.15;101722.91;4996878;28;20052;-84
2023/06/25 06:51:35;;;;;;;;;;;;;;;22.69;60.15;101721.31;5014552;28;20020;-84
2023/06/25 06:54:00;;;;;;;;;;;;;;;22.81;59.91;101722.44;4996728;28;19913;-86
2023/06/25 06:56:26;;;;;;;;;;;;;;;22.92;58.37;101725.34;4996473;28;19928;-83
2023/06/25 06:58:51;;;;;;;;;;;;;;;23.02;58.87;101717.59;4996895;28;19918;-83
2023/06/25 07:01:17;;;;;;;;;;;;;;;23.15;58.34;101724.00;4996373;28;20020;-83
2023/06/25 07:03:42;;;;;;;;;;;;;;;23.25;58.18;101729.72;4964315;28;19940;-85
2023/06/25 07:06:08;;;;;;;;;;;;;;;23.36;57.57;101722.66;5014654;28;19925;-85
2023/06/25 07:08:33;;;;;;;;;;;;;;;23.47;57.84;101718.47;4996653;28;19918;-84
2023/06/25 07:10:58;;;;;;;;;;;;;;;23.56;55.79;101718.72;5013980;28;19945;-83
2023/06/25 07:13:24;;;;;;;;;;;;;;;23.66;56.57;101718.16;4977073;28;19996;-84
2023/06/25 07:15:50;;;;;;;;;;;;;;;23.77;56.50;101718.38;4990514;28;19921;-87
2023/06/25 07:18:19;;;;;;;;;;;;;;;23.86;56.26;101715.06;4980558;28;19917;-84
2023/06/25 07:20:44;;;;;;;;;;;;;;;23.96;56.13;101716.25;5014299;28;19917;-84
2023/06/25 07:23:10;;;;;;;;;;;;;;;24.07;56.18;101730.91;4963756;28;20282;-84
2023/06/25 07:25:35;;;;;;;;;;;;;;;24.19;56.05;101727.41;4980048;28;19933;-84
2023/06/25 07:28:01;;;;;;;;;;;;;;;24.30;56.12;101724.84;4978006;28;19922;-83
2023/06/25 07:30:26;;;;;;;;;;;;;;;24.43;54.26;101716.78;5013671;28;19922;-84
2023/06/25 07:32:52;;;;;;;;;;;;;;;24.50;53.92;101722.69;4995787;28;20016;-83
2023/06/25 07:35:17;;;;;;;;;;;;;;;24.58;54.80;101715.81;4995769;28;19933;-83
2023/06/25 07:37:43;;;;;;;;;;;;;;;24.65;53.73;101716.25;4995947;28;19917;-83
2023/06/25 07:40:08;;;;;;;;;;;;;;;24.70;54.08;101708.69;4979400;28;19918;-82
2023/06/25 07:42:34;;;;;;;;;;;;;;;24.76;54.50;101708.28;4994812;28;19928;-82
2023/06/25 07:44:59;;;;;;;;;;;;;;;24.86;53.85;101711.22;4979229;28;20407;-82
2023/06/25 07:47:25;;;;;;;;;;;;;;;24.94;53.27;101708.00;4984684;28;20268;-82
2023/06/25 07:49:50;;;;;;;;;;;;;;;25.05;53.61;101708.13;4995315;28;20003;-82
2023/06/25 07:52:15;;;;;;;;;;;;;;;25.16;53.34;101705.53;4994196;28;19921;-81
2023/06/25 07:54:41;;;;;;;;;;;;;;;25.27;53.41;101704.78;4975638;28;19922;-81
2023/06/25 07:57:06;;;;;;;;;;;;;;;25.36;51.34;101704.16;4988885;28;19961;-81
2023/06/25 07:59:32;;;;;;;;;;;;;;;25.47;52.96;101703.38;4978730;28;19926;-82
2023/06/25 08:01:58;;;;;;;;;;;;;;;25.62;51.45;101699.59;4978293;28;19926;-82
2023/06/25 08:04:23;;;;;;;;;;;;;;;25.72;48.34;101699.81;4975653;28;19924;-80
2023/06/25 08:06:49;;;;;;;;;;;;;;;25.76;50.92;101695.88;4993231;28;19952;-81
2023/06/25 08:09:14;;;;;;;;;;;;;;;25.84;51.22;101693.50;5006706;28;19921;-81
2023/06/25 08:11:40;;;;;;;;;;;;;;;25.98;50.63;101695.22;4982281;28;20011;-81
2023/06/25 08:14:06;;;;;;;;;;;;;;;26.10;47.90;101688.88;5003881;28;19921;-81
2023/06/25 08:16:31;;;;;;;;;;;;;;;26.17;49.60;101690.16;4994723;28;20309;-81
2023/06/25 08:18:56;;;;;;;;;;;;;;;26.29;49.10;101692.94;4968068;28;19921;-81
2023/06/25 08:21:22;;;;;;;;;;;;;;;26.37;50.23;101691.38;4991731;28;19982;-81
2023/06/25 08:23:47;;;;;;;;;;;;;;;26.47;49.03;101686.13;5011096;28;19917;-81
2023/06/25 08:26:15;;;;;;;;;;;;;;;26.48;48.21;101687.84;4997788;28;19921;-80
2023/06/25 08:28:41;;;;;;;;;;;;;;;26.59;46.49;101682.50;4991848;28;19921;-81
2023/06/25 08:31:06;;;;;;;;;;;;;;;26.67;48.46;101679.19;4994318;28;19929;-82
2023/06/25 08:33:32;;;;;;;;;;;;;;;26.80;48.18;101680.00;5008808;28;20475;-82
2023/06/25 08:35:58;;;;;;;;;;;;;;;26.95;47.38;101686.09;4992752;28;20098;-82
2023/06/25 08:38:24;;;;;;;;;;;;;;;27.06;48.08;101678.97;4976770;28;19921;-84
2023/06/25 08:40:52;;;;;;;;;;;;;;;27.15;47.45;101670.94;5010882;28;20360;-84
2023/06/25 08:43:17;;;;;;;;;;;;;;;27.25;46.90;101679.28;4988049;28;19941;-83
2023/06/25 08:45:42;;;;;;;;;;;;;;;27.35;47.16;101671.22;4988744;28;20337;-82
2023/06/25 08:48:11;;;;;;;;;;;;;;;27.47;46.39;101677.53;4986906;28;19971;-83
2023/06/25 08:50:39;;;;;;;;;;;;;;;27.59;46.34;101676.56;4988312;28;19925;-82
2023/06/25 08:53:05;;;;;;;;;;;;;;;27.67;45.73;101672.22;5006188;28;20434;-83
2023/06/25 08:55:31;;;;;;;;;;;;;;;27.67;46.74;101674.09;5008340;28;19925;-82
2023/06/25 08:57:56;;;;;;;;;;;;;;;27.74;45.91;101663.56;5010814;28;19937;-82
2023/06/25 09:00:21;;;;;;;;;;;;;;;27.81;43.59;101662.94;4992919;28;20392;-82
2023/06/25 09:02:47;;;;;;;;;;;;;;;27.79;43.71;101664.03;5010688;28;19933;-82
2023/06/25 09:05:13;;;;;;;;;;;;;;;27.86;42.75;101668.88;4993420;28;19930;-81
2023/06/25 09:07:45;;;;;;;;;;;;;;;27.86;43.36;101670.75;4993307;28;19922;-76
2023/06/25 09:10:11;;;;;;;;;;;;;;;27.97;43.68;101672.59;5005362;28;19924;-77
2023/06/25 09:12:37;;;;;;;;;;;;;;;28.06;42.48;101664.50;5005353;28;19925;-76
2023/06/25 09:15:02;;;;;;;;;;;;;;;28.19;43.42;101658.06;4993215;28;19976;-75
2023/06/25 09:17:28;;;;;;;;;;;;;;;28.25;42.27;101654.81;5011203;28;19965;-75
2023/06/25 09:19:53;;;;;;;;;;;;;;;28.34;43.21;101655.91;5010608;28;19937;-76
2023/06/25 09:22:18;;;;;;;;;;;;;;;28.45;42.04;101658.63;4977164;28;19925;-76
2023/06/25 09:24:44;;;;;;;;;;;;;;;28.58;43.17;101651.13;5008962;28;20004;-76
2023/06/25 09:27:10;;;;;;;;;;;;;;;28.76;42.33;101651.44;4974003;28;19972;-76
2023/06/25 09:29:36;;;;;;;;;;;;;;;28.88;42.63;101650.38;5009587;28;19937;-75
2023/06/25 09:32:08;;;;;;;;;;;;;;;29.00;42.77;101653.00;4993029;28;19937;-75
2023/06/25 09:34:34;;;;;;;;;;;;;;;29.06;40.61;101647.91;5010744;28;19917;-75
2023/06/25 09:37:01;;;;;;;;;;;;;;;29.14;42.14;101649.97;5000100;28;19962;-75
2023/06/25 09:39:26;;;;;;;;;;;;;;;29.25;42.49;101654.47;5009987;28;19917;-75
2023/06/25 09:41:53;;;;;;;;;;;;;;;29.36;42.98;101654.41;4995156;28;19929;-75
2023/06/25 09:44:19;;;;;;;;;;;;;;;29.41;41.94;101645.81;4995944;28;20416;-76
2023/06/25 09:46:46;;;;;;;;;;;;;;;29.52;39.86;101653.88;4996585;28;20004;-75
2023/06/25 09:49:13;;;;;;;;;;;;;;;29.58;40.00;101646.00;5009803;28;20343;-76
2023/06/25 09:51:57;;;;;;;;;;;;;;;29.61;39.40;101642.13;4993170;28;20373;-76
2023/06/25 09:54:24;;;;;;;;;;;;;;;29.73;40.98;101635.59;5009266;28;20380;-76
2023/06/25 09:56:49;;;;;;;;;;;;;;;29.92;41.14;101632.06;5006926;28;20598;-76
2023/06/25 09:59:15;;;;;;;;;;;;;;;30.08;39.81;101628.78;5010180;28;19925;-76
2023/06/25 10:01:40;;;;;;;;;;;;;;;30.07;39.68;101628.91;4992750;28;20345;-75
2023/06/25 10:04:06;;;;;;;;;;;;;;;30.07;39.06;101626.16;4992567;28;20338;-76
2023/06/25 10:06:32;;;;;;;;;;;;;;;30.14;39.21;101622.75;4992563;28;19921;-76
2023/06/25 10:08:57;;;;;;;;;;;;;;;30.23;40.25;101630.06;4992609;28;20028;-76
2023/06/25 10:11:23;;;;;;;;;;;;;;;30.31;39.06;101621.19;4977804;28;19921;-76
2023/06/25 10:13:48;;;;;;;;;;;;;;;30.45;39.71;101616.31;4997124;28;19937;-76
2023/06/25 10:16:20;;;;;;;;;;;;;;;30.61;39.57;101612.00;5013444;28;19996;-75
2023/06/25 10:18:47;;;;;;;;;;;;;;;30.70;38.08;101606.66;5008023;28;20281;-75
2023/06/25 10:21:19;;;;;;;;;;;;;;;30.71;38.34;101603.75;5008451;28;19936;-75
2023/06/25 10:24:01;;;;;;;;;;;;;;;30.80;38.62;101615.69;4993767;28;19961;-75
2023/06/25 10:26:30;;;;;;;;;;;;;;;30.92;36.05;101619.16;5009654;28;19921;-75
2023/06/25 10:28:59;;;;;;;;;;;;;;;30.85;35.92;101611.53;4996287;28;19926;-75
2023/06/25 10:31:26;;;;;;;;;;;;;;;30.81;36.04;101606.47;4995411;28;19960;-75
2023/06/25 10:34:01;;;;;;;;;;;;;;;30.94;36.06;101598.00;4989896;28;19922;-75
2023/06/25 10:36:26;;;;;;;;;;;;;;;31.13;37.44;101594.31;4982930;28;20377;-75
2023/06/25 10:38:52;;;;;;;;;;;;;;;31.38;36.21;101601.88;4993315;28;19929;-75
2023/06/25 10:41:24;;;;;;;;;;;;;;;31.52;34.46;101597.78;4998862;28;20076;-75
2023/06/25 10:43:50;;;;;;;;;;;;;;;31.43;35.61;101602.31;5002833;28;20284;-75
2023/06/25 10:46:15;;;;;;;;;;;;;;;31.45;35.51;101592.06;4998725;28;19926;-75
2023/06/25 10:48:44;;;;;;;;;;;;;;;31.54;33.73;101587.53;4974229;28;20446;-76
2023/06/25 10:51:10;;;;;;;;;;;;;;;31.53;35.91;101588.56;4992775;28;19921;-75
2023/06/25 10:53:35;;;;;;;;;;;;;;;31.63;33.76;101580.31;4995734;28;19937;-75
2023/06/25 10:56:02;;;;;;;;;;;;;;;31.65;34.99;101581.88;4995203;28;19951;-76
2023/06/25 10:58:27;;;;;;;;;;;;;;;31.76;34.55;101577.19;5013005;28;19972;-76
2023/06/25 11:00:54;;;;;;;;;;;;;;;31.89;33.35;101577.66;5013118;28;19984;-76
2023/06/25 11:03:21;;;;;;;;;;;;;;;31.92;33.31;101575.50;4992404;28;19925;-75
2023/06/25 11:05:46;;;;;;;;;;;;;;;31.96;33.71;101570.59;4976082;28;19925;-76
2023/06/25 11:08:12;;;;;;;;;;;;;;;31.99;32.09;101581.22;4976050;28;19921;-77
2023/06/25 11:10:38;;;;;;;;;;;;;;;31.87;30.79;101574.22;4985114;28;20337;-75
2023/06/25 11:13:04;;;;;;;;;;;;;;;31.91;31.98;101573.75;5011606;28;19918;-76
2023/06/25 11:15:30;;;;;;;;;;;;;;;32.07;31.51;101572.22;5013252;28;20350;-76
2023/06/25 11:17:55;;;;;;;;;;;;;;;31.96;31.07;101565.09;4977617;28;19918;-75
2023/06/25 11:20:27;;;;;;;;;;;;;;;31.87;31.33;101569.59;5012416;28;19924;-75
2023/06/25 11:22:58;;;;;;;;;;;;;;;32.00;32.84;101565.63;4995004;28;20388;-76
2023/06/25 11:25:24;;;;;;;;;;;;;;;32.23;31.74;101552.34;4982551;28;19933;-76
2023/06/25 11:27:59;;;;;;;;;;;;;;;32.26;31.74;101560.25;5000337;28;20246;-76
2023/06/25 11:30:26;;;;;;;;;;;;;;;32.09;31.05;101553.75;4982738;28;19921;-76
2023/06/25 11:32:51;;;;;;;;;;;;;;;32.13;30.51;101553.28;5000443;28;19917;-76
2023/06/25 11:35:17;;;;;;;;;;;;;;;32.09;31.32;101551.84;4994624;28;20207;-75
2023/06/25 11:37:46;;;;;;;;;;;;;;;32.28;32.75;101552.72;4967274;28;19934;-76
2023/06/25 11:40:22;;;;;;;;;;;;;;;32.57;32.53;101549.72;4994763;28;19918;-76
2023/06/25 11:42:48;;;;;;;;;;;;;;;32.69;31.48;101553.03;4985689;28;19918;-76
2023/06/25 11:45:13;;;;;;;;;;;;;;;32.80;32.55;101540.97;5010227;28;20240;-76
2023/06/25 11:47:42;;;;;;;;;;;;;;;32.96;32.39;101535.53;4965055;28;19965;-76
2023/06/25 11:50:09;;;;;;;;;;;;;;;33.22;32.16;101540.19;5003627;28;20014;-76
2023/06/25 11:52:36;;;;;;;;;;;;;;;33.44;30.05;101531.34;5012256;28;19944;-76
2023/06/25 11:55:01;;;;;;;;;;;;;;;33.35;28.38;101535.94;4994989;28;19949;-75
2023/06/25 11:57:27;;;;;;;;;;;;;;;33.25;29.88;101526.97;4992936;28;20016;-75
2023/06/25 11:59:52;;;;;;;;;;;;;;;33.15;29.82;101529.00;5012497;28;19929;-75
2023/06/25 12:02:18;;;;;;;;;;;;;;;33.11;29.54;101533.09;4995005;28;20423;-75
2023/06/25 12:04:43;;;;;;;;;;;;;;;32.98;30.28;101520.66;5012235;28;19927;-75
2023/06/25 12:07:09;;;;;;;;;;;;;;;33.07;30.21;101520.75;4994743;28;20359;-75
2023/06/25 12:09:34;;;;;;;;;;;;;;;33.30;31.00;101523.72;4994228;28;20408;-75
2023/06/25 12:11:59;;;;;;;;;;;;;;;33.34;29.04;101517.75;5012344;28;19936;-75
2023/06/25 12:14:25;;;;;;;;;;;;;;;33.18;29.23;101518.53;4993988;28;20352;-75
2023/06/25 12:16:50;;;;;;;;;;;;;;;33.01;29.72;101510.38;4994473;28;20059;-75
2023/06/25 12:19:16;;;;;;;;;;;;;;;33.06;30.26;101506.16;5012364;28;20321;-75
2023/06/25 12:21:41;;;;;;;;;;;;;;;33.13;28.46;101507.19;5011988;28;20000;-75
2023/06/25 12:24:06;;;;;;;;;;;;;;;33.19;29.79;101492.81;4994319;28;20367;-75
2023/06/25 12:26:32;;;;;;;;;;;;;;;33.38;28.00;101488.06;5012231;28;19932;-75
2023/06/25 12:28:57;;;;;;;;;;;;;;;33.51;28.76;101493.94;4994206;28;19921;-75
2023/06/25 12:31:23;;;;;;;;;;;;;;;33.53;29.80;101486.41;5011804;28;19944;-75